Time;durP1;ratioP1;P1;durP2;ratioP2;P2;SDS_P1;SDS_P2;PMS_P1;PMS_P2;Temp;Humidity;BMP_temperature;BMP_pressure;BME280_temperature;BME280_humidity;BME280_pressure;Samples;Min_cycle;Max_cycle;Signal;HPM_P1;HPM_P2
2022/10/19 00:01:07;;;;;;;5.22;0.82;;;13.40;99.90;;;;;;5099796;28;20122;-75
2022/10/19 00:03:35;;;;;;;6.20;0.85;;;13.40;99.90;;;;;;5099438;28;20036;-76
2022/10/19 00:06:10;;;;;;;5.97;0.80;;;13.40;99.90;;;;;;5117363;28;20042;-76
2022/10/19 00:08:36;;;;;;;6.07;1.10;;;13.40;99.90;;;;;;5117716;28;20096;-75
2022/10/19 00:11:02;;;;;;;10.82;1.00;;;13.40;99.90;;;;;;5117579;28;20031;-76
2022/10/19 00:13:27;;;;;;;5.47;1.25;;;13.40;99.90;;;;;;5099211;28;20039;-76
2022/10/19 00:15:53;;;;;;;2.92;0.68;;;13.40;99.90;;;;;;5082319;28;20044;-76
2022/10/19 00:18:19;;;;;;;2.50;0.70;;;13.40;99.90;;;;;;5117491;28;20039;-76
2022/10/19 00:20:44;;;;;;;4.28;0.70;;;13.50;99.90;;;;;;5117445;28;20061;-76
2022/10/19 00:23:10;;;;;;;9.40;1.35;;;13.50;99.90;;;;;;5082361;28;20122;-75
2022/10/19 00:25:37;;;;;;;7.47;1.65;;;13.50;99.90;;;;;;5117125;28;20550;-75
2022/10/19 00:28:03;;;;;;;3.53;0.90;;;13.50;99.90;;;;;;5099551;28;20059;-75
2022/10/19 00:30:29;;;;;;;3.70;0.60;;;13.60;99.90;;;;;;5117368;28;20110;-76
2022/10/19 00:32:55;;;;;;;11.82;1.33;;;13.60;99.90;;;;;;5117239;28;20493;-76
2022/10/19 00:35:20;;;;;;;6.50;0.70;;;13.50;99.90;;;;;;5098608;28;20044;-76
2022/10/19 00:37:46;;;;;;;8.68;0.80;;;13.50;99.90;;;;;;5099026;28;20071;-76
2022/10/19 00:40:12;;;;;;;5.10;0.70;;;13.60;99.90;;;;;;5082260;28;20096;-76
2022/10/19 00:42:38;;;;;;;5.13;0.68;;;13.60;99.90;;;;;;5117201;28;20027;-77
2022/10/19 00:45:12;;;;;;;10.40;0.80;;;13.60;99.90;;;;;;5117192;28;20370;-76
2022/10/19 00:47:37;;;;;;;4.45;0.80;;;13.60;99.90;;;;;;5117251;28;20378;-76
2022/10/19 00:50:04;;;;;;;7.22;1.13;;;13.60;99.90;;;;;;5098893;28;20047;-76
2022/10/19 00:52:30;;;;;;;7.22;1.02;;;13.70;99.90;;;;;;5117145;28;20039;-76
2022/10/19 00:54:58;;;;;;;5.40;1.25;;;13.70;99.90;;;;;;5118818;28;20084;-76
2022/10/19 00:57:27;;;;;;;3.55;0.88;;;13.70;99.90;;;;;;5103296;28;20035;-76
2022/10/19 00:59:54;;;;;;;3.83;0.70;;;13.80;99.90;;;;;;5121248;28;20081;-76
2022/10/19 01:02:20;;;;;;;4.55;1.10;;;13.80;99.90;;;;;;5121210;28;20073;-76
2022/10/19 01:04:50;;;;;;;5.40;1.20;;;13.80;99.90;;;;;;5103038;28;20059;-76
2022/10/19 01:07:17;;;;;;;3.47;0.70;;;13.80;99.90;;;;;;5102687;28;20043;-75
2022/10/19 01:09:43;;;;;;;5.15;0.90;;;13.80;99.90;;;;;;5121057;28;20039;-76
2022/10/19 01:12:15;;;;;;;3.67;1.10;;;13.80;99.90;;;;;;5120713;28;20059;-76
2022/10/19 01:14:53;;;;;;;3.55;1.15;;;13.80;99.90;;;;;;5085715;28;20173;-76
2022/10/19 01:17:45;;;;;;;7.55;1.10;;;13.80;99.90;;;;;;5102962;28;20409;-76
2022/10/19 01:20:32;;;;;;;7.57;1.05;;;13.80;99.90;;;;;;5102576;28;20416;-76
2022/10/19 01:23:32;;;;;;;5.25;1.05;;;13.80;99.90;;;;;;5102298;28;20064;-76
2022/10/19 01:26:22;;;;;;;8.45;0.95;;;13.80;99.90;;;;;;5120771;28;20056;-76
2022/10/19 01:29:15;;;;;;;4.15;1.10;;;13.80;99.90;;;;;;5085776;28;20044;-76
2022/10/19 01:31:58;;;;;;;4.43;1.08;;;13.80;99.90;;;;;;5102358;28;20044;-76
2022/10/19 01:34:31;;;;;;;3.38;0.80;;;13.80;99.90;;;;;;5120680;28;20048;-76
2022/10/19 01:37:13;;;;;;;7.53;1.20;;;13.70;99.90;;;;;;5120307;28;20040;-76
2022/10/19 01:40:23;;;;;;;7.97;1.73;;;13.70;99.90;;;;;;5085278;28;20044;-76
2022/10/19 01:43:10;;;;;;;4.28;1.13;;;13.70;99.90;;;;;;5017860;28;20132;-76
2022/10/19 01:45:39;;;;;;;;;;;13.70;99.90;;;;;;5018409;28;20100;-76
2022/10/19 01:48:25;;;;;;;4.72;0.80;;;13.70;99.90;;;;;;5087143;28;19937;-76
2022/10/19 01:51:20;;;;;;;4.38;1.27;;;13.70;99.90;;;;;;5120375;28;20043;-76
2022/10/19 01:53:52;;;;;;;5.72;1.30;;;13.70;99.90;;;;;;5085068;28;20419;-76
2022/10/19 01:56:22;;;;;;;4.65;0.80;;;13.70;99.90;;;;;;5120141;28;20044;-76
2022/10/19 01:58:50;;;;;;;7.60;1.08;;;13.70;99.90;;;;;;5102146;28;20039;-76
2022/10/19 02:01:18;;;;;;;4.70;0.98;;;13.80;99.90;;;;;;5101735;28;20432;-76
2022/10/19 02:03:45;;;;;;;4.30;0.70;;;13.70;99.90;;;;;;5120062;28;20365;-76
2022/10/19 02:06:13;;;;;;;6.25;0.73;;;13.70;99.90;;;;;;5119054;28;20043;-76
2022/10/19 02:08:51;;;;;;;9.25;1.17;;;13.70;99.90;;;;;;5101914;28;20310;-76
2022/10/19 02:11:18;;;;;;;10.75;0.98;;;13.60;99.90;;;;;;5101566;28;20047;-76
2022/10/19 02:13:47;;;;;;;5.82;1.77;;;13.50;99.90;;;;;;5101516;28;20039;-76
2022/10/19 02:16:21;;;;;;;10.73;1.13;;;13.40;99.90;;;;;;5119736;28;20044;-76
2022/10/19 02:18:50;;;;;;;7.57;0.80;;;13.20;99.90;;;;;;5119797;28;20067;-75
2022/10/19 02:21:16;;;;;;;6.25;0.82;;;13.30;99.90;;;;;;5119408;28;20038;-76
2022/10/19 02:23:42;;;;;;;10.90;0.82;;;13.30;99.90;;;;;;5101319;28;20051;-76
2022/10/19 02:26:08;;;;;;;8.35;0.60;;;13.40;99.90;;;;;;5119562;28;20386;-76
2022/10/19 02:28:34;;;;;;;10.85;1.52;;;13.40;99.90;;;;;;5119261;28;20039;-76
2022/10/19 02:31:01;;;;;;;9.85;1.00;;;13.40;99.90;;;;;;5101546;28;20118;-77
2022/10/19 02:33:28;;;;;;;7.07;0.60;;;13.40;99.90;;;;;;5101490;28;20100;-76
2022/10/19 02:35:55;;;;;;;6.75;0.68;;;13.40;99.90;;;;;;5100734;28;20051;-77
2022/10/19 02:38:21;;;;;;;6.95;0.75;;;13.30;99.90;;;;;;5101285;28;20040;-76
2022/10/19 02:41:05;;;;;;;4.55;0.52;;;13.30;99.90;;;;;;5101043;28;20040;-76
2022/10/19 02:43:35;;;;;;;5.55;0.60;;;13.30;99.90;;;;;;5118972;28;20417;-76
2022/10/19 02:46:33;;;;;;;10.80;0.95;;;13.30;99.90;;;;;;5118969;28;20055;-76
2022/10/19 02:49:02;;;;;;;8.65;1.10;;;13.30;99.90;;;;;;5119224;28;20043;-76
2022/10/19 02:51:35;;;;;;;8.77;0.95;;;13.30;99.90;;;;;;5100760;28;20043;-76
2022/10/19 02:54:03;;;;;;;3.53;0.70;;;13.30;99.90;;;;;;5118755;28;20429;-76
2022/10/19 02:56:29;;;;;;;5.85;0.90;;;13.40;99.90;;;;;;5100910;28;20067;-76
2022/10/19 02:58:55;;;;;;;7.85;0.80;;;13.40;99.90;;;;;;5118624;28;20436;-75
2022/10/19 03:01:21;;;;;;;8.15;0.70;;;13.30;99.90;;;;;;5100860;28;20043;-76
2022/10/19 03:03:47;;;;;;;5.40;0.60;;;13.30;99.90;;;;;;5100600;28;20433;-75
2022/10/19 03:06:12;;;;;;;11.07;0.65;;;13.30;99.90;;;;;;5118117;28;20043;-76
2022/10/19 03:08:38;;;;;;;9.40;0.80;;;13.20;99.90;;;;;;5100442;28;20074;-76
2022/10/19 03:11:04;;;;;;;8.55;1.00;;;13.10;99.90;;;;;;5118399;28;20043;-76
2022/10/19 03:13:30;;;;;;;7.30;1.00;;;13.10;99.90;;;;;;5118660;28;20035;-76
2022/10/19 03:15:55;;;;;;;10.75;1.25;;;12.90;99.90;;;;;;5083367;28;20050;-76
2022/10/19 03:18:21;;;;;;;9.80;0.90;;;12.80;99.90;;;;;;5099330;28;20362;-76
2022/10/19 03:20:47;;;;;;;8.02;0.70;;;12.70;99.90;;;;;;5100575;28;20043;-76
2022/10/19 03:23:13;;;;;;;4.65;0.80;;;12.60;99.90;;;;;;5118203;28;20127;-75
2022/10/19 03:25:39;;;;;;;7.22;0.90;;;12.50;99.90;;;;;;5118140;28;20086;-76
2022/10/19 03:28:05;;;;;;;6.45;0.70;;;12.50;99.90;;;;;;5118372;28;20074;-75
2022/10/19 03:30:30;;;;;;;3.95;0.60;;;12.50;99.90;;;;;;5118340;28;20043;-76
2022/10/19 03:32:56;;;;;;;7.65;0.90;;;12.50;99.90;;;;;;5118336;28;20493;-76
2022/10/19 03:35:22;;;;;;;7.93;0.60;;;12.50;99.90;;;;;;5117854;28;20054;-76
2022/10/19 03:37:47;;;;;;;3.78;0.70;;;12.50;99.90;;;;;;5100348;28;20042;-76
2022/10/19 03:40:13;;;;;;;8.43;0.80;;;12.50;99.90;;;;;;5118173;28;20044;-76
2022/10/19 03:42:38;;;;;;;6.90;0.98;;;12.50;99.90;;;;;;5118122;28;20039;-75
2022/10/19 03:45:05;;;;;;;5.78;0.90;;;12.60;99.90;;;;;;5083008;28;20050;-76
2022/10/19 03:47:30;;;;;;;7.25;0.57;;;12.60;99.90;;;;;;5118024;28;20040;-75
2022/10/19 03:49:56;;;;;;;6.53;0.90;;;12.50;99.90;;;;;;5099997;28;20062;-75
2022/10/19 03:52:21;;;;;;;12.23;1.23;;;12.40;99.90;;;;;;5099667;28;20075;-76
2022/10/19 03:54:50;;;;;;;10.63;0.93;;;12.50;99.90;;;;;;5082656;28;20046;-75
2022/10/19 03:57:16;;;;;;;10.15;1.10;;;12.50;99.90;;;;;;5117836;28;20325;-75
2022/10/19 03:59:42;;;;;;;5.00;0.60;;;12.60;99.90;;;;;;5117819;28;20046;-75
2022/10/19 04:02:07;;;;;;;5.18;0.90;;;12.70;99.90;;;;;;5117745;28;20105;-77
2022/10/19 04:04:33;;;;;;;6.38;0.60;;;12.70;99.90;;;;;;5117400;28;20104;-76
2022/10/19 04:06:59;;;;;;;5.72;0.68;;;12.80;99.90;;;;;;5117387;28;20055;-75
2022/10/19 04:09:24;;;;;;;4.70;0.77;;;12.70;99.90;;;;;;5082512;28;20120;-75
2022/10/19 04:11:50;;;;;;;9.07;1.02;;;12.70;99.90;;;;;;5099279;28;20046;-76
2022/10/19 04:14:19;;;;;;;4.30;0.77;;;12.70;99.90;;;;;;5099531;28;20047;-76
2022/10/19 04:16:44;;;;;;;8.20;0.70;;;12.70;99.90;;;;;;5117420;28;20046;-76
2022/10/19 04:19:14;;;;;;;8.60;0.98;;;12.70;99.90;;;;;;5099484;28;20043;-76
2022/10/19 04:21:42;;;;;;;7.30;1.08;;;12.70;99.90;;;;;;5099172;28;20317;-75
2022/10/19 04:24:14;;;;;;;9.25;1.20;;;12.70;99.90;;;;;;5099215;28;20055;-75
2022/10/19 04:26:42;;;;;;;4.63;0.70;;;12.70;99.90;;;;;;5116783;28;20067;-76
2022/10/19 04:29:08;;;;;;;8.98;0.75;;;12.70;99.90;;;;;;5116669;28;20322;-75
2022/10/19 04:31:34;;;;;;;6.15;0.77;;;12.80;99.90;;;;;;5117040;28;20046;-76
2022/10/19 04:34:00;;;;;;;6.85;0.82;;;12.80;99.90;;;;;;5098679;28;20039;-76
2022/10/19 04:36:26;;;;;;;9.07;1.30;;;12.80;99.90;;;;;;5098847;28;20035;-76
2022/10/19 04:38:51;;;;;;;7.38;0.85;;;12.90;99.90;;;;;;5116921;28;20084;-76
2022/10/19 04:41:20;;;;;;;5.63;0.70;;;12.90;99.90;;;;;;5099287;28;20031;-76
2022/10/19 04:43:46;;;;;;;8.55;1.05;;;12.90;99.90;;;;;;5117221;28;20325;-75
2022/10/19 04:46:15;;;;;;;11.23;1.35;;;12.90;99.90;;;;;;5099106;28;20375;-75
2022/10/19 04:48:41;;;;;;;7.82;1.00;;;12.90;99.90;;;;;;5117164;28;20039;-75
2022/10/19 04:51:08;;;;;;;6.53;0.90;;;13.00;99.90;;;;;;5099099;28;20374;-75
2022/10/19 04:53:35;;;;;;;8.27;1.10;;;13.00;99.90;;;;;;5098771;28;20054;-75
2022/10/19 04:56:05;;;;;;;11.88;1.50;;;12.90;99.90;;;;;;5117034;28;20051;-75
2022/10/19 04:58:31;;;;;;;5.43;0.77;;;13.00;99.90;;;;;;5117040;28;20320;-75
2022/10/19 05:00:57;;;;;;;6.78;0.93;;;12.90;99.90;;;;;;5117042;28;20111;-75
2022/10/19 05:03:22;;;;;;;9.40;1.02;;;12.90;99.90;;;;;;5098744;28;20036;-76
2022/10/19 05:05:48;;;;;;;8.00;1.10;;;12.80;99.90;;;;;;5098348;28;20087;-76
2022/10/19 05:08:14;;;;;;;6.65;0.93;;;12.80;99.90;;;;;;5098743;28;20122;-75
2022/10/19 05:10:42;;;;;;;9.25;1.13;;;12.80;99.90;;;;;;5098763;28;20328;-76
2022/10/19 05:13:08;;;;;;;4.50;0.65;;;12.80;99.90;;;;;;5082122;28;20040;-76
2022/10/19 05:15:34;;;;;;;9.30;1.30;;;12.80;99.90;;;;;;5098758;28;20075;-76
2022/10/19 05:17:59;;;;;;;16.80;1.58;;;12.80;99.90;;;;;;5098498;28;20121;-76
2022/10/19 05:20:26;;;;;;;10.00;1.00;;;12.90;99.90;;;;;;5098712;28;20039;-76
2022/10/19 05:22:51;;;;;;;8.57;1.13;;;12.90;99.90;;;;;;5098350;28;20059;-76
2022/10/19 05:25:17;;;;;;;12.85;1.35;;;13.00;99.90;;;;;;5116812;28;20050;-76
2022/10/19 05:27:43;;;;;;;17.10;1.60;;;13.00;99.90;;;;;;5098834;28;20370;-76
2022/10/19 05:30:09;;;;;;;17.13;1.20;;;12.90;99.90;;;;;;5116759;28;20043;-76
2022/10/19 05:32:34;;;;;;;10.23;0.85;;;12.90;99.90;;;;;;5116755;28;20075;-76
2022/10/19 05:35:00;;;;;;;9.25;1.15;;;13.00;99.90;;;;;;5116679;28;20047;-75
2022/10/19 05:37:26;;;;;;;19.50;1.73;;;13.00;99.90;;;;;;5098088;28;20424;-74
2022/10/19 05:39:54;;;;;;;9.82;1.10;;;13.10;99.90;;;;;;5098383;28;20044;-73
2022/10/19 05:42:20;;;;;;;6.60;1.15;;;13.10;99.90;;;;;;5122180;28;20043;-80
2022/10/19 05:44:45;;;;;;;8.07;1.02;;;13.20;99.90;;;;;;5102510;28;20367;-78
2022/10/19 05:47:11;;;;;;;7.82;1.20;;;13.20;99.90;;;;;;5102270;28;20031;-77
2022/10/19 05:49:37;;;;;;;13.00;1.35;;;13.20;99.90;;;;;;5102089;28;20032;-74
2022/10/19 05:52:03;;;;;;;7.53;0.80;;;13.20;99.90;;;;;;5120300;28;20340;-76
2022/10/19 05:54:28;;;;;;;12.43;1.10;;;13.10;99.90;;;;;;5120315;28;20031;-76
2022/10/19 05:56:54;;;;;;;8.52;0.90;;;13.10;99.90;;;;;;5101885;28;20039;-75
2022/10/19 05:59:20;;;;;;;9.43;1.15;;;13.10;99.90;;;;;;5101918;28;20038;-75
2022/10/19 06:01:46;;;;;;;9.30;1.20;;;13.00;99.90;;;;;;5119801;28;20092;-75
2022/10/19 06:04:13;;;;;;;8.27;0.98;;;13.00;99.90;;;;;;5085144;28;20082;-72
2022/10/19 06:06:41;;;;;;;8.10;1.02;;;13.00;99.90;;;;;;5101339;28;20123;-73
2022/10/19 06:09:07;;;;;;;12.77;1.52;;;13.00;99.90;;;;;;5120003;28;20050;-73
2022/10/19 06:11:36;;;;;;;11.07;1.30;;;13.10;99.90;;;;;;5119968;28;20035;-73
2022/10/19 06:14:06;;;;;;;15.18;1.60;;;13.10;99.90;;;;;;5119884;28;20042;-73
2022/10/19 06:16:32;;;;;;;11.82;1.23;;;13.20;99.90;;;;;;5119536;28;20040;-73
2022/10/19 06:18:58;;;;;;;10.68;1.27;;;13.20;99.90;;;;;;5119524;28;20459;-73
2022/10/19 06:21:27;;;;;;;7.82;1.15;;;13.20;99.90;;;;;;5119754;28;20042;-73
2022/10/19 06:23:55;;;;;;;6.28;1.10;;;13.20;99.90;;;;;;5119285;28;20056;-73
2022/10/19 06:26:22;;;;;;;9.38;1.05;;;13.20;99.90;;;;;;5119642;28;20054;-73
2022/10/19 06:28:48;;;;;;;11.02;1.38;;;13.20;99.90;;;;;;5119626;28;20036;-73
2022/10/19 06:31:14;;;;;;;12.68;1.35;;;13.20;99.90;;;;;;5119573;28;20047;-73
2022/10/19 06:33:42;;;;;;;7.13;1.10;;;13.30;99.90;;;;;;5119510;28;20044;-73
2022/10/19 06:36:13;;;;;;;9.40;1.10;;;13.30;99.90;;;;;;5118632;28;20047;-74
2022/10/19 06:38:39;;;;;;;9.02;1.17;;;13.40;99.90;;;;;;5119428;28;20040;-72
2022/10/19 06:41:05;;;;;;;9.20;1.00;;;13.40;99.90;;;;;;5119750;28;20044;-75
2022/10/19 06:43:32;;;;;;;10.02;1.13;;;13.40;99.90;;;;;;5120885;28;20028;-74
2022/10/19 06:45:58;;;;;;;9.05;1.55;;;13.40;99.90;;;;;;5119243;28;20104;-75
2022/10/19 06:48:24;;;;;;;13.48;1.58;;;13.40;99.90;;;;;;5119217;28;20074;-75
2022/10/19 06:51:00;;;;;;;6.05;1.08;;;13.40;99.90;;;;;;5119176;28;20035;-75
2022/10/19 06:53:27;;;;;;;5.18;1.02;;;13.50;99.90;;;;;;5118684;28;20366;-75
2022/10/19 06:56:00;;;;;;;8.65;1.23;;;13.50;99.90;;;;;;5118976;28;20040;-76
2022/10/19 06:58:26;;;;;;;13.23;1.58;;;13.50;99.90;;;;;;5118728;28;20035;-75
2022/10/19 07:00:59;;;;;;;8.32;1.25;;;13.50;99.90;;;;;;5119037;28;20040;-75
2022/10/19 07:03:26;;;;;;;8.35;1.23;;;13.50;99.90;;;;;;5118918;28;20032;-76
2022/10/19 07:05:56;;;;;;;11.68;1.95;;;13.60;99.90;;;;;;5118206;28;20448;-76
2022/10/19 07:08:23;;;;;;;7.35;1.42;;;13.50;99.90;;;;;;5100747;28;20065;-76
2022/10/19 07:10:53;;;;;;;10.05;1.40;;;13.50;99.90;;;;;;5118478;28;20428;-76
2022/10/19 07:13:20;;;;;;;15.82;1.30;;;13.50;99.90;;;;;;5118807;28;20047;-76
2022/10/19 07:15:46;;;;;;;8.38;1.20;;;13.50;99.90;;;;;;5100282;28;20057;-76
2022/10/19 07:18:12;;;;;;;12.55;1.65;;;13.50;99.90;;;;;;5100665;28;20078;-76
2022/10/19 07:20:38;;;;;;;8.52;1.10;;;13.60;99.90;;;;;;5118552;28;20042;-77
2022/10/19 07:23:04;;;;;;;7.97;1.35;;;13.70;99.90;;;;;;5118222;28;20052;-76
2022/10/19 07:25:29;;;;;;;12.65;1.27;;;13.70;99.90;;;;;;5118513;28;20043;-76
2022/10/19 07:27:55;;;;;;;10.52;1.60;;;13.70;99.90;;;;;;5118442;28;20341;-77
2022/10/19 07:30:22;;;;;;;9.00;1.55;;;13.70;99.90;;;;;;5118393;28;20047;-77
2022/10/19 07:32:47;;;;;;;11.45;1.80;;;13.90;99.90;;;;;;5100481;28;20122;-75
2022/10/19 07:35:14;;;;;;;15.80;2.20;;;14.00;99.90;;;;;;5118268;28;20122;-76
2022/10/19 07:37:40;;;;;;;12.88;1.65;;;14.00;99.90;;;;;;5117836;28;20067;-76
2022/10/19 07:40:06;;;;;;;8.60;1.33;;;14.10;99.90;;;;;;5117895;28;20271;-76
2022/10/19 07:42:32;;;;;;;8.45;1.00;;;14.20;99.90;;;;;;5118145;28;20348;-76
2022/10/19 07:44:57;;;;;;;3.40;0.80;;;14.20;99.90;;;;;;5118159;28;20031;-83
2022/10/19 07:47:23;;;;;;;4.88;0.88;;;14.30;99.90;;;;;;5083158;28;20078;-83
2022/10/19 07:49:49;;;;;;;8.38;1.10;;;14.50;99.90;;;;;;5082906;28;20340;-83
2022/10/19 07:52:15;;;;;;;13.27;1.70;;;14.70;99.90;;;;;;5083322;28;20043;-83
2022/10/19 07:54:40;;;;;;;13.02;1.45;;;14.60;99.90;;;;;;5100129;28;20043;-83
2022/10/19 07:57:06;;;;;;;7.18;1.30;;;14.60;99.90;;;;;;5099577;28;20405;-84
2022/10/19 07:59:32;;;;;;;11.95;1.20;;;14.70;99.80;;;;;;5082684;28;20039;-84
2022/10/19 08:02:01;;;;;;;12.70;1.48;;;14.70;99.60;;;;;;5099797;28;20051;-84
2022/10/19 08:04:26;;;;;;;12.23;1.35;;;14.80;99.70;;;;;;5082542;28;20100;-85
2022/10/19 08:06:52;;;;;;;13.13;2.22;;;14.80;99.70;;;;;;5082311;28;20043;-83
2022/10/19 08:09:18;;;;;;;8.60;1.45;;;14.80;99.20;;;;;;5083010;28;20046;-85
2022/10/19 08:11:43;;;;;;;9.40;1.58;;;14.80;99.40;;;;;;5082603;28;20046;-84
2022/10/19 08:14:09;;;;;;;9.10;1.50;;;14.80;99.40;;;;;;5082567;28;20044;-88
2022/10/19 08:16:39;;;;;;;9.18;1.17;;;14.90;99.50;;;;;;5082536;28;20318;-83
2022/10/19 08:19:13;;;;;;;10.57;1.17;;;14.70;99.30;;;;;;5117700;28;20070;-90
2022/10/19 08:21:41;;;;;;;13.70;1.50;;;14.80;99.60;;;;;;5099935;28;20451;-92
2022/10/19 08:24:07;;;;;;;12.80;1.48;;;14.40;98.90;;;;;;5099638;28;20094;-89
2022/10/19 08:26:36;;;;;;;63.40;4.57;;;14.50;99.50;;;;;;5099702;28;20047;-90
2022/10/19 08:29:14;;;;;;;15.02;1.90;;;14.70;99.80;;;;;;5082780;28;20047;-89
2022/10/19 08:31:41;;;;;;;7.13;0.95;;;14.70;99.10;;;;;;5099990;28;20391;-89
2022/10/19 08:34:07;;;;;;;10.13;1.15;;;14.40;98.10;;;;;;5099408;28;20046;-87
2022/10/19 08:36:34;;;;;;;10.05;1.63;;;14.10;98.90;;;;;;5098994;28;20044;-88
2022/10/19 08:39:01;;;;;;;5.88;1.02;;;13.90;98.40;;;;;;5065780;28;20035;-83
2022/10/19 08:41:48;;;;;;;10.55;1.42;;;13.90;99.30;;;;;;5065538;28;20405;-87
2022/10/19 08:44:38;;;;;;;15.07;1.48;;;14.10;99.40;;;;;;5099070;28;20043;-87
2022/10/19 08:47:37;;;;;;;10.50;1.25;;;14.00;98.70;;;;;;5083047;28;20052;-85
2022/10/19 08:50:20;;;;;;;10.45;1.83;;;14.10;99.10;;;;;;5099183;28;20383;-85
2022/10/19 08:53:01;;;;;;;16.48;1.52;;;14.00;98.70;;;;;;5082323;28;20459;-85
2022/10/19 08:55:55;;;;;;;10.73;1.27;;;14.00;98.80;;;;;;5098830;28;20075;-81
2022/10/19 08:59:05;;;;;;;15.85;1.60;;;13.80;98.50;;;;;;5047270;28;20054;-83
2022/10/19 09:01:49;;;;;;;7.47;1.20;;;14.10;99.10;;;;;;5078751;28;20040;-82
2022/10/19 09:04:21;;;;;;;9.85;1.25;;;14.20;98.80;;;;;;5092193;28;20043;-81
2022/10/19 09:07:05;;;;;;;9.45;1.33;;;14.20;98.60;;;;;;5078306;28;20043;-80
2022/10/19 09:09:33;;;;;;;10.20;1.20;;;14.10;98.20;;;;;;5095129;28;20050;-81
2022/10/19 09:12:05;;;;;;;7.78;1.10;;;13.90;98.20;;;;;;5078547;28;20123;-81
2022/10/19 09:14:43;;;;;;;9.25;1.02;;;14.00;98.70;;;;;;5101431;28;20043;-82
2022/10/19 09:17:17;;;;;;;13.93;1.30;;;14.00;98.70;;;;;;5100791;28;20062;-82
2022/10/19 09:19:43;;;;;;;6.65;1.63;;;14.00;98.60;;;;;;5120663;28;20112;-82
2022/10/19 09:22:19;;;;;;;5.88;0.88;;;14.10;98.40;;;;;;5102318;28;20095;-81
2022/10/19 09:24:56;;;;;;;8.45;1.45;;;14.20;98.60;;;;;;5102737;28;20071;-82
2022/10/19 09:27:36;;;;;;;7.72;1.15;;;14.10;98.20;;;;;;5120439;28;20035;-81
2022/10/19 09:30:23;;;;;;;11.70;1.10;;;14.00;98.50;;;;;;5120326;28;20428;-81
2022/10/19 09:32:58;;;;;;;11.32;0.93;;;13.90;98.40;;;;;;5101624;28;20505;-80
2022/10/19 09:35:37;;;;;;;8.30;0.98;;;13.80;98.50;;;;;;5086308;28;20436;-82
2022/10/19 09:38:06;;;;;;;6.15;0.90;;;13.80;98.40;;;;;;5102274;28;20043;-82
2022/10/19 09:40:33;;;;;;;7.68;1.10;;;14.00;98.70;;;;;;5120402;28;20046;-83
2022/10/19 09:43:07;;;;;;;9.70;0.80;;;13.80;98.30;;;;;;5102031;28;20429;-82
2022/10/19 09:45:42;;;;;;;10.10;1.33;;;13.80;98.50;;;;;;5085186;28;20043;-87
2022/10/19 09:48:28;;;;;;;6.95;0.85;;;13.70;98.50;;;;;;5084843;28;20062;-90
2022/10/19 09:50:58;;;;;;;11.68;1.35;;;13.70;98.50;;;;;;5102485;28;20035;-88
2022/10/19 09:53:25;;;;;;;9.18;1.70;;;13.90;98.90;;;;;;5081944;28;20123;-88
2022/10/19 09:56:05;;;;;;;12.13;1.80;;;14.10;98.80;;;;;;5065477;28;20375;-88
2022/10/19 09:58:31;;;;;;;12.93;1.60;;;14.10;98.60;;;;;;5091415;28;20332;-89
2022/10/19 10:00:57;;;;;;;6.07;1.02;;;14.00;98.80;;;;;;5102401;28;20035;-88
2022/10/19 10:03:39;;;;;;;11.85;1.23;;;13.60;98.10;;;;;;5101897;28;20035;-88
2022/10/19 10:06:16;;;;;;;10.70;1.10;;;13.40;98.40;;;;;;5085928;28;20042;-89
2022/10/19 10:08:51;;;;;;;7.20;0.90;;;13.40;98.20;;;;;;5084941;28;20092;-81
2022/10/19 10:11:38;;;;;;;9.07;1.13;;;13.40;98.40;;;;;;5096047;28;20058;-83
2022/10/19 10:14:15;;;;;;;13.60;1.30;;;13.30;98.10;;;;;;5114596;28;20035;-87
2022/10/19 10:16:40;;;;;;;4.93;0.90;;;13.50;98.60;;;;;;5098060;28;20063;-87
2022/10/19 10:19:11;;;;;;;10.80;1.27;;;13.80;98.60;;;;;;5100702;28;20067;-90
2022/10/19 10:21:51;;;;;;;13.25;1.20;;;14.00;98.50;;;;;;5084778;28;20031;-87
2022/10/19 10:24:18;;;;;;;8.25;0.95;;;14.10;98.30;;;;;;5101658;28;20113;-81
2022/10/19 10:26:55;;;;;;;6.60;0.80;;;14.00;97.40;;;;;;5119206;28;20067;-78
2022/10/19 10:29:28;;;;;;;8.68;0.98;;;14.00;98.10;;;;;;5103576;28;20043;-83
2022/10/19 10:32:03;;;;;;;9.27;1.02;;;14.00;97.90;;;;;;5101451;28;20044;-83
2022/10/19 10:34:42;;;;;;;13.82;1.45;;;13.80;97.20;;;;;;5119331;28;20113;-81
2022/10/19 10:37:20;;;;;;;6.38;0.95;;;13.90;97.50;;;;;;5101442;28;20119;-82
2022/10/19 10:39:54;;;;;;;9.63;1.35;;;13.80;97.60;;;;;;5119454;28;20046;-83
2022/10/19 10:42:31;;;;;;;8.18;0.70;;;14.00;98.20;;;;;;5119455;28;20042;-83
2022/10/19 10:44:57;;;;;;;9.00;1.65;;;14.00;97.30;;;;;;5101083;28;20042;-81
2022/10/19 10:47:25;;;;;;;9.50;1.67;;;13.90;97.70;;;;;;5100985;28;20036;-83
2022/10/19 10:50:05;;;;;;;9.35;1.17;;;14.20;98.30;;;;;;5100905;28;20082;-82
2022/10/19 10:52:31;;;;;;;9.60;1.08;;;14.10;97.80;;;;;;5117931;28;20040;-81
2022/10/19 10:55:21;;;;;;;10.93;1.08;;;14.10;97.80;;;;;;5101025;28;20047;-81
2022/10/19 10:57:51;;;;;;;12.18;1.20;;;14.00;97.50;;;;;;5117305;28;20079;-80
2022/10/19 11:00:19;;;;;;;10.07;0.93;;;13.90;97.40;;;;;;5100939;28;20321;-80
2022/10/19 11:02:55;;;;;;;8.52;1.52;;;13.80;97.60;;;;;;5100934;28;20114;-75
2022/10/19 11:05:44;;;;;;;6.72;0.80;;;13.90;98.00;;;;;;5119041;28;20043;-86
2022/10/19 11:08:33;;;;;;;5.97;0.57;;;13.70;97.80;;;;;;5084044;28;20047;-85
2022/10/19 11:11:12;;;;;;;8.02;0.68;;;14.00;97.70;;;;;;5083902;28;20344;-83
2022/10/19 11:13:54;;;;;;;7.63;1.00;;;14.30;98.10;;;;;;5083536;28;20463;-85
2022/10/19 11:16:41;;;;;;;11.32;1.38;;;14.20;97.60;;;;;;5083551;28;20039;-85
2022/10/19 11:19:17;;;;;;;9.10;0.88;;;14.30;97.80;;;;;;5118705;28;20035;-73
2022/10/19 11:22:18;;;;;;;11.70;1.10;;;14.60;97.90;;;;;;5118612;28;20036;-73
2022/10/19 11:25:04;;;;;;;4.88;0.70;;;14.90;97.60;;;;;;5118544;28;20040;-73
2022/10/19 11:27:42;;;;;;;;;;;15.20;97.80;;;;;;5118742;28;20043;-73
2022/10/19 11:30:23;;;;;;;8.75;1.10;;;15.40;97.40;;;;;;5118474;28;19923;-73
2022/10/19 11:32:57;;;;;;;9.05;1.10;;;15.40;97.10;;;;;;5118661;28;20039;-73
2022/10/19 11:35:33;;;;;;;11.57;1.42;;;15.40;97.40;;;;;;5118303;28;20081;-74
2022/10/19 11:38:42;;;;;;;6.03;0.98;;;15.50;97.40;;;;;;5117957;28;20072;-73
2022/10/19 11:41:20;;;;;;;8.75;1.33;;;15.40;97.20;;;;;;5108712;28;20052;-73
2022/10/19 11:44:05;;;;;;;10.00;1.00;;;15.40;97.40;;;;;;5117915;28;20067;-73
2022/10/19 11:46:44;;;;;;;8.18;1.02;;;15.30;96.90;;;;;;5118200;28;20036;-73
2022/10/19 11:49:44;;;;;;;9.07;1.17;;;15.10;96.90;;;;;;5118157;28;20039;-73
2022/10/19 11:52:09;;;;;;;7.95;1.10;;;15.20;96.90;;;;;;5118070;28;20054;-73
2022/10/19 11:54:38;;;;;;;15.82;1.40;;;15.20;97.30;;;;;;5117936;28;20119;-73
2022/10/19 11:57:14;;;;;;;6.78;0.80;;;15.20;97.10;;;;;;5117871;28;20306;-74
2022/10/19 11:59:54;;;;;;;10.88;0.82;;;15.20;97.30;;;;;;5117905;28;20035;-73
2022/10/19 12:02:41;;;;;;;12.20;1.08;;;15.40;97.00;;;;;;5117613;28;20441;-73
2022/10/19 12:05:51;;;;;;;12.70;0.90;;;15.60;96.50;;;;;;5117769;28;20035;-74
2022/10/19 12:08:40;;;;;;;9.48;1.52;;;15.70;96.60;;;;;;5117763;28;20135;-73
2022/10/19 12:11:26;;;;;;;9.02;1.17;;;15.70;96.10;;;;;;5118139;28;20043;-73
2022/10/19 12:14:11;;;;;;;8.02;1.10;;;15.60;96.50;;;;;;5117324;28;20046;-74
2022/10/19 12:16:42;;;;;;;6.35;0.75;;;15.80;96.50;;;;;;5117562;28;20118;-73
2022/10/19 12:19:22;;;;;;;8.05;1.00;;;16.00;96.20;;;;;;5117668;28;20374;-77
2022/10/19 12:21:51;;;;;;;5.80;1.23;;;16.60;96.00;;;;;;5099586;28;20036;-82
2022/10/19 12:24:24;;;;;;;7.32;1.35;;;16.80;96.20;;;;;;5099277;28;20043;-84
2022/10/19 12:26:52;;;;;;;8.60;1.23;;;16.30;95.60;;;;;;5099171;28;20046;-85
2022/10/19 12:29:32;;;;;;;9.50;1.27;;;16.40;96.70;;;;;;5099459;28;20423;-84
2022/10/19 12:32:00;;;;;;;8.73;1.10;;;15.90;96.40;;;;;;5099205;28;20073;-84
2022/10/19 12:34:26;;;;;;;8.30;2.33;;;15.50;96.60;;;;;;5099098;28;20082;-84
2022/10/19 12:37:01;;;;;;;8.70;1.05;;;15.20;96.60;;;;;;5098677;28;20075;-84
2022/10/19 12:39:35;;;;;;;10.43;1.30;;;15.20;96.40;;;;;;5099016;28;20036;-84
2022/10/19 12:42:24;;;;;;;4.60;0.93;;;15.10;96.80;;;;;;5082231;28;20069;-85
2022/10/19 12:45:15;;;;;;;6.28;1.00;;;15.20;96.60;;;;;;5099013;28;20040;-84
2022/10/19 12:48:07;;;;;;;8.77;0.93;;;15.20;96.50;;;;;;5082594;28;20035;-84
2022/10/19 12:50:48;;;;;;;10.57;1.45;;;15.10;97.50;;;;;;5100615;28;20374;-84
2022/10/19 12:53:36;;;;;;;8.57;1.10;;;14.70;96.90;;;;;;5102935;28;20344;-84
2022/10/19 12:56:08;;;;;;;8.50;0.95;;;15.00;97.30;;;;;;5086426;28;20040;-86
2022/10/19 12:58:42;;;;;;;7.30;1.60;;;15.40;97.20;;;;;;5103440;28;20069;-86
2022/10/19 13:01:34;;;;;;;11.55;1.27;;;16.10;96.60;;;;;;5103093;28;20447;-86
2022/10/19 13:04:16;;;;;;;7.93;1.30;;;16.40;96.10;;;;;;5109235;28;20076;-87
2022/10/19 13:07:16;;;;;;;5.85;1.00;;;16.00;96.20;;;;;;5102893;28;20104;-87
2022/10/19 13:09:45;;;;;;;6.80;1.15;;;15.90;96.00;;;;;;5102912;28;20096;-88